Time;durP1;ratioP1;P1;durP2;ratioP2;P2;SDS_P1;SDS_P2;PMS_P1;PMS_P2;Temp;Humidity;BMP_temperature;BMP_pressure;BME280_temperature;BME280_humidity;BME280_pressure;Samples;Min_cycle;Max_cycle;Signal;HPM_P1;HPM_P2
2023/05/19 00:01:06;;;;;;;8.55;3.10;;;;;;;;;;4994602;28;20076;-75
2023/05/19 00:03:32;;;;;;;8.43;3.08;;;;;;;;;;4995568;28;20034;-75
2023/05/19 00:06:00;;;;;;;8.93;2.85;;;;;;;;;;4994363;28;20042;-75
2023/05/19 00:08:29;;;;;;;4.80;2.88;;;;;;;;;;4987894;28;20113;-75
2023/05/19 00:10:56;;;;;;;12.65;3.10;;;;;;;;;;4995460;28;20053;-75
2023/05/19 00:13:22;;;;;;;6.72;2.85;;;;;;;;;;4991438;28;20038;-75
2023/05/19 00:15:47;;;;;;;6.32;2.90;;;;;;;;;;4991030;28;20038;-75
2023/05/19 00:18:13;;;;;;;10.73;3.30;;;;;;;;;;4994154;28;20042;-75
2023/05/19 00:20:38;;;;;;;8.20;3.13;;;;;;;;;;4993733;28;20466;-75
2023/05/19 00:23:04;;;;;;;6.95;2.40;;;;;;;;;;4994655;28;20026;-75
2023/05/19 00:25:29;;;;;;;8.07;2.85;;;;;;;;;;4994586;28;20046;-75
2023/05/19 00:27:55;;;;;;;7.47;2.55;;;;;;;;;;4994627;28;20116;-75
2023/05/19 00:30:21;;;;;;;5.90;2.47;;;;;;;;;;4994562;28;20041;-75
2023/05/19 00:32:47;;;;;;;7.95;3.47;;;;;;;;;;4995266;28;20485;-75
2023/05/19 00:35:13;;;;;;;7.68;2.60;;;;;;;;;;4991030;28;20042;-75
2023/05/19 00:37:38;;;;;;;4.20;2.55;;;;;;;;;;4994397;28;20030;-74
2023/05/19 00:40:05;;;;;;;5.57;2.80;;;;;;;;;;4994889;28;20058;-75
2023/05/19 00:42:31;;;;;;;6.97;2.83;;;;;;;;;;4994690;28;20093;-75
2023/05/19 00:44:57;;;;;;;7.25;2.90;;;;;;;;;;4992934;28;20031;-75
2023/05/19 00:47:22;;;;;;;9.07;2.60;;;;;;;;;;4994697;28;20038;-75
2023/05/19 00:49:47;;;;;;;6.47;2.97;;;;;;;;;;4994315;28;20035;-75
2023/05/19 00:52:13;;;;;;;9.40;3.05;;;;;;;;;;4994969;28;20426;-75
2023/05/19 00:54:38;;;;;;;3.75;2.30;;;;;;;;;;4992904;28;20042;-75
2023/05/19 00:57:04;;;;;;;8.00;2.63;;;;;;;;;;4995062;28;20035;-75
2023/05/19 00:59:29;;;;;;;6.50;2.70;;;;;;;;;;4993986;28;20057;-75
2023/05/19 01:01:55;;;;;;;6.32;2.60;;;;;;;;;;4992969;28;20896;-75
2023/05/19 01:04:20;;;;;;;8.95;2.60;;;;;;;;;;4993249;28;20129;-75
2023/05/19 01:06:48;;;;;;;6.72;2.75;;;;;;;;;;4994363;28;20117;-75
2023/05/19 01:09:14;;;;;;;7.35;2.70;;;;;;;;;;4994194;28;20448;-75
2023/05/19 01:11:39;;;;;;;6.88;2.70;;;;;;;;;;4993752;28;20523;-75
2023/05/19 01:14:05;;;;;;;5.88;2.88;;;;;;;;;;4993677;28;20058;-75
2023/05/19 01:16:36;;;;;;;9.48;2.55;;;;;;;;;;4994087;28;20395;-75
2023/05/19 01:19:56;;;;;;;6.93;2.58;;;;;;;;;;4993008;28;20042;-75
2023/05/19 01:22:26;;;;;;;4.70;1.95;;;;;;;;;;4961876;28;20035;-75
2023/05/19 01:25:16;;;;;;;8.98;3.00;;;;;;;;;;4937016;29;20051;-75
2023/05/19 01:28:05;;;;;;;9.85;2.40;;;;;;;;;;4977690;28;20053;-75
2023/05/19 01:30:33;;;;;;;5.50;2.53;;;;;;;;;;4992556;28;20390;-75
2023/05/19 01:33:01;;;;;;;4.25;2.00;;;;;;;;;;4990050;28;20049;-75
2023/05/19 01:35:28;;;;;;;6.93;2.88;;;;;;;;;;4991617;28;20042;-75
2023/05/19 01:37:56;;;;;;;8.27;2.88;;;;;;;;;;4992612;28;20045;-75
2023/05/19 01:40:23;;;;;;;5.10;2.50;;;;;;;;;;4992572;28;20070;-75
2023/05/19 01:42:50;;;;;;;7.15;2.67;;;;;;;;;;4992433;28;20096;-74
2023/05/19 01:45:16;;;;;;;9.38;2.70;;;;;;;;;;4992544;28;20121;-75
2023/05/19 01:47:42;;;;;;;6.97;2.50;;;;;;;;;;4992493;28;20114;-75
2023/05/19 01:50:08;;;;;;;10.32;2.85;;;;;;;;;;4992418;28;20080;-75
2023/05/19 01:52:34;;;;;;;8.77;3.10;;;;;;;;;;4988115;28;20039;-75
2023/05/19 01:54:59;;;;;;;6.30;2.67;;;;;;;;;;4993634;28;20101;-75
2023/05/19 01:57:48;;;;;;;4.93;2.65;;;;;;;;;;4993420;28;20108;-75
2023/05/19 02:00:41;;;;;;;6.13;2.72;;;;;;;;;;4982920;28;20132;-74
2023/05/19 02:03:07;;;;;;;5.20;2.28;;;;;;;;;;4991547;28;20042;-75
2023/05/19 02:05:44;;;;;;;8.30;2.50;;;;;;;;;;4990374;28;20050;-75
2023/05/19 02:08:23;;;;;;;8.57;2.55;;;;;;;;;;4992189;28;20049;-75
2023/05/19 02:10:51;;;;;;;7.25;2.60;;;;;;;;;;4991956;28;20445;-75
2023/05/19 02:13:20;;;;;;;10.27;2.42;;;;;;;;;;4992305;28;20038;-74
2023/05/19 02:15:46;;;;;;;6.35;2.70;;;;;;;;;;4991726;28;20544;-75
2023/05/19 02:18:16;;;;;;;7.88;2.83;;;;;;;;;;4973057;28;20117;-75
2023/05/19 02:20:42;;;;;;;5.82;2.40;;;;;;;;;;4987151;28;20034;-75
2023/05/19 02:23:07;;;;;;;6.15;2.53;;;;;;;;;;4996707;28;20062;-75
2023/05/19 02:25:32;;;;;;;7.70;2.00;;;;;;;;;;4997189;28;20045;-75
2023/05/19 02:27:58;;;;;;;7.18;2.38;;;;;;;;;;4995860;28;20061;-75
2023/05/19 02:30:23;;;;;;;8.30;2.65;;;;;;;;;;4996940;28;20467;-75
2023/05/19 02:32:49;;;;;;;6.57;2.75;;;;;;;;;;4997178;28;20035;-75
2023/05/19 02:35:14;;;;;;;4.32;2.38;;;;;;;;;;4993553;28;20034;-75
2023/05/19 02:37:40;;;;;;;4.68;2.20;;;;;;;;;;4995624;28;20132;-74
2023/05/19 02:40:06;;;;;;;10.35;2.80;;;;;;;;;;4996578;28;20035;-75
2023/05/19 02:42:31;;;;;;;5.57;2.78;;;;;;;;;;4996825;28;20499;-75
2023/05/19 02:44:58;;;;;;;4.50;2.10;;;;;;;;;;4996952;28;20132;-75
2023/05/19 02:47:24;;;;;;;5.22;2.13;;;;;;;;;;4995636;28;20052;-75
2023/05/19 02:49:49;;;;;;;5.43;2.70;;;;;;;;;;4996942;28;20393;-75
2023/05/19 02:52:14;;;;;;;7.53;2.58;;;;;;;;;;4997064;28;20034;-75
2023/05/19 02:54:40;;;;;;;5.63;2.40;;;;;;;;;;4996686;28;20494;-75
2023/05/19 02:57:05;;;;;;;7.63;2.35;;;;;;;;;;4996493;28;20043;-75
2023/05/19 02:59:31;;;;;;;7.82;2.65;;;;;;;;;;4996374;28;20049;-75
2023/05/19 03:01:59;;;;;;;8.45;2.60;;;;;;;;;;4996761;28;20069;-75
2023/05/19 03:04:25;;;;;;;8.48;2.47;;;;;;;;;;4995423;28;20051;-75
2023/05/19 03:06:50;;;;;;;4.63;2.65;;;;;;;;;;4996996;28;20049;-75
2023/05/19 03:09:16;;;;;;;9.07;2.33;;;;;;;;;;4995478;28;20042;-75
2023/05/19 03:11:41;;;;;;;6.80;2.30;;;;;;;;;;4996797;28;20536;-75
2023/05/19 03:14:09;;;;;;;8.20;2.70;;;;;;;;;;4996471;28;20451;-75
2023/05/19 03:16:35;;;;;;;7.13;2.80;;;;;;;;;;4995969;28;20486;-75
2023/05/19 03:19:00;;;;;;;6.32;2.75;;;;;;;;;;4996370;28;20045;-75
2023/05/19 03:21:26;;;;;;;6.85;2.50;;;;;;;;;;4996453;28;20468;-75
2023/05/19 03:23:51;;;;;;;3.83;2.10;;;;;;;;;;4996203;28;20042;-75
2023/05/19 03:26:16;;;;;;;7.97;2.60;;;;;;;;;;4996197;28;20042;-75
2023/05/19 03:28:42;;;;;;;4.93;2.20;;;;;;;;;;4988308;28;20042;-75
2023/05/19 03:31:07;;;;;;;6.72;2.65;;;;;;;;;;4994826;28;20116;-75
2023/05/19 03:33:32;;;;;;;5.95;2.28;;;;;;;;;;4995650;28;20514;-75
2023/05/19 03:35:58;;;;;;;5.55;2.88;;;;;;;;;;4996187;28;20774;-75
2023/05/19 03:38:23;;;;;;;4.80;2.58;;;;;;;;;;4996163;28;20046;-75
2023/05/19 03:40:49;;;;;;;8.95;2.85;;;;;;;;;;4995808;28;20106;-75
2023/05/19 03:43:15;;;;;;;5.65;2.45;;;;;;;;;;4995417;28;20402;-75
2023/05/19 03:45:40;;;;;;;7.25;2.28;;;;;;;;;;4995701;28;20044;-75
2023/05/19 03:48:06;;;;;;;4.50;2.70;;;;;;;;;;4995537;28;20479;-75
2023/05/19 03:50:32;;;;;;;5.05;2.58;;;;;;;;;;4994525;28;20042;-74
2023/05/19 03:52:58;;;;;;;6.57;2.53;;;;;;;;;;4995728;28;20497;-75
2023/05/19 03:55:24;;;;;;;7.70;2.72;;;;;;;;;;4995729;28;20076;-75
2023/05/19 03:57:51;;;;;;;7.00;2.67;;;;;;;;;;4995200;28;20050;-75
2023/05/19 04:00:17;;;;;;;6.10;2.65;;;;;;;;;;4995687;28;20092;-75
2023/05/19 04:02:42;;;;;;;8.00;2.92;;;;;;;;;;4995616;28;20042;-74
2023/05/19 04:05:08;;;;;;;4.93;2.40;;;;;;;;;;4995394;28;20745;-75
2023/05/19 04:07:34;;;;;;;4.10;2.10;;;;;;;;;;4995665;28;20490;-74
2023/05/19 04:10:00;;;;;;;6.72;2.88;;;;;;;;;;4995281;28;20042;-75
2023/05/19 04:12:25;;;;;;;5.50;2.33;;;;;;;;;;4995480;28;20038;-75
2023/05/19 04:14:50;;;;;;;11.73;2.70;;;;;;;;;;4995051;28;20064;-75
2023/05/19 04:17:16;;;;;;;10.88;2.90;;;;;;;;;;4995450;28;20117;-75
2023/05/19 04:19:41;;;;;;;7.75;2.83;;;;;;;;;;4995062;28;20045;-75
2023/05/19 04:22:07;;;;;;;7.50;2.40;;;;;;;;;;4995391;28;20026;-75
2023/05/19 04:24:32;;;;;;;7.40;2.83;;;;;;;;;;4994990;28;20046;-75
2023/05/19 04:27:01;;;;;;;6.38;2.65;;;;;;;;;;4995353;28;20462;-75
2023/05/19 04:29:29;;;;;;;5.55;2.53;;;;;;;;;;4991185;28;20501;-74
2023/05/19 04:31:56;;;;;;;11.23;2.90;;;;;;;;;;4993185;28;20049;-74
2023/05/19 04:34:21;;;;;;;6.80;2.60;;;;;;;;;;4993797;28;20065;-75
2023/05/19 04:36:47;;;;;;;7.57;2.70;;;;;;;;;;4995124;28;20069;-74
2023/05/19 04:39:13;;;;;;;12.45;2.83;;;;;;;;;;4994928;28;20046;-75
2023/05/19 04:41:39;;;;;;;5.80;2.33;;;;;;;;;;4994716;28;20042;-75
2023/05/19 04:44:06;;;;;;;4.80;2.53;;;;;;;;;;4994281;28;20049;-75
2023/05/19 04:46:31;;;;;;;5.00;2.30;;;;;;;;;;4994315;28;20124;-75
2023/05/19 04:49:00;;;;;;;7.00;2.63;;;;;;;;;;4994515;28;20117;-74
2023/05/19 04:51:27;;;;;;;7.57;2.40;;;;;;;;;;4994614;28;20061;-75
2023/05/19 04:53:54;;;;;;;8.85;2.72;;;;;;;;;;4993580;28;20034;-75
2023/05/19 04:56:19;;;;;;;11.70;2.95;;;;;;;;;;4994258;28;20034;-74
2023/05/19 04:58:45;;;;;;;9.30;2.63;;;;;;;;;;4988339;28;20513;-74
2023/05/19 05:01:12;;;;;;;7.60;2.92;;;;;;;;;;4993961;28;20034;-74
2023/05/19 05:03:38;;;;;;;6.28;2.53;;;;;;;;;;4994675;28;20034;-75
2023/05/19 05:06:03;;;;;;;6.10;2.60;;;;;;;;;;4994206;28;20042;-74
2023/05/19 05:08:29;;;;;;;4.63;2.80;;;;;;;;;;4994585;28;20038;-75
2023/05/19 05:10:55;;;;;;;6.85;2.70;;;;;;;;;;4994185;28;20026;-74
2023/05/19 05:13:22;;;;;;;12.93;2.83;;;;;;;;;;4994049;28;20085;-75
2023/05/19 05:15:48;;;;;;;7.05;3.22;;;;;;;;;;4992570;28;20128;-74
2023/05/19 05:18:14;;;;;;;7.88;2.60;;;;;;;;;;4994107;28;20114;-74
2023/05/19 05:20:43;;;;;;;10.52;2.55;;;;;;;;;;4988622;28;20470;-74
2023/05/19 05:23:13;;;;;;;7.25;2.95;;;;;;;;;;4989533;28;20050;-75
2023/05/19 05:25:41;;;;;;;8.10;2.70;;;;;;;;;;4992656;28;20538;-74
2023/05/19 05:28:07;;;;;;;3.83;2.47;;;;;;;;;;4993762;28;20092;-74
2023/05/19 05:30:33;;;;;;;7.70;2.92;;;;;;;;;;4992897;28;20042;-75
2023/05/19 05:32:58;;;;;;;5.82;2.78;;;;;;;;;;4992102;28;20030;-74
2023/05/19 05:35:23;;;;;;;14.13;2.85;;;;;;;;;;4992674;28;20031;-74
2023/05/19 05:37:49;;;;;;;11.65;2.50;;;;;;;;;;4993944;28;20491;-75
2023/05/19 05:40:14;;;;;;;8.18;3.03;;;;;;;;;;4993595;28;20026;-74
2023/05/19 05:42:40;;;;;;;5.70;2.33;;;;;;;;;;4993852;28;20042;-74
2023/05/19 05:45:06;;;;;;;9.95;2.65;;;;;;;;;;4991295;28;20082;-75
2023/05/19 05:47:32;;;;;;;7.00;2.50;;;;;;;;;;4993640;28;20113;-75
2023/05/19 05:49:58;;;;;;;4.95;2.15;;;;;;;;;;4993668;28;20034;-75
2023/05/19 05:52:28;;;;;;;5.22;2.30;;;;;;;;;;4993966;28;20042;-75
2023/05/19 05:54:54;;;;;;;6.72;2.13;;;;;;;;;;4993446;28;20029;-74
2023/05/19 05:57:20;;;;;;;5.75;2.20;;;;;;;;;;4993252;28;20058;-75
2023/05/19 05:59:46;;;;;;;3.45;1.92;;;;;;;;;;4992025;28;20076;-75
2023/05/19 06:02:11;;;;;;;6.53;2.75;;;;;;;;;;4989440;28;20838;-75
2023/05/19 06:04:36;;;;;;;4.97;1.92;;;;;;;;;;4991556;28;20035;-75
2023/05/19 06:07:02;;;;;;;4.47;1.80;;;;;;;;;;4989719;28;20078;-75
2023/05/19 06:09:29;;;;;;;4.07;1.90;;;;;;;;;;4992136;28;20578;-75
2023/05/19 06:11:54;;;;;;;4.40;1.70;;;;;;;;;;4993599;28;20042;-75
2023/05/19 06:14:19;;;;;;;5.40;2.17;;;;;;;;;;4993651;28;20049;-75
2023/05/19 06:16:46;;;;;;;5.00;1.92;;;;;;;;;;4992229;28;20050;-75
2023/05/19 06:19:12;;;;;;;5.75;2.08;;;;;;;;;;4993740;28;20038;-75
2023/05/19 06:21:38;;;;;;;5.30;1.80;;;;;;;;;;4992003;28;20108;-75
2023/05/19 06:24:03;;;;;;;6.45;1.77;;;;;;;;;;4993515;28;20077;-75
2023/05/19 06:26:28;;;;;;;5.03;2.17;;;;;;;;;;4993617;28;20441;-75
2023/05/19 06:28:54;;;;;;;6.78;1.95;;;;;;;;;;4989661;28;20047;-75
2023/05/19 06:31:19;;;;;;;3.33;2.10;;;;;;;;;;4995520;28;20065;-76
2023/05/19 06:33:45;;;;;;;5.13;2.35;;;;;;;;;;4993487;28;20084;-75
2023/05/19 06:36:10;;;;;;;5.57;1.70;;;;;;;;;;4993526;28;20092;-76
2023/05/19 06:38:36;;;;;;;5.80;2.42;;;;;;;;;;4993383;28;20534;-76
2023/05/19 06:41:01;;;;;;;4.88;2.20;;;;;;;;;;4992134;28;21041;-75
2023/05/19 06:43:27;;;;;;;7.03;2.58;;;;;;;;;;4990749;28;20118;-76
2023/05/19 06:45:53;;;;;;;4.18;2.25;;;;;;;;;;4990600;28;20046;-76
2023/05/19 06:48:18;;;;;;;3.95;2.30;;;;;;;;;;4984213;28;20434;-76
2023/05/19 06:50:43;;;;;;;4.45;2.10;;;;;;;;;;4981388;28;20047;-76
2023/05/19 06:53:09;;;;;;;4.85;2.40;;;;;;;;;;4988276;28;20034;-76
2023/05/19 06:55:34;;;;;;;5.15;2.25;;;;;;;;;;4986084;28;20453;-77
2023/05/19 06:58:00;;;;;;;5.80;2.22;;;;;;;;;;4990010;28;20439;-76
2023/05/19 07:00:26;;;;;;;5.70;2.58;;;;;;;;;;4990852;28;20065;-77
2023/05/19 07:02:51;;;;;;;7.05;2.47;;;;;;;;;;4989525;28;20905;-77
2023/05/19 07:05:17;;;;;;;6.70;2.40;;;;;;;;;;4989109;28;20390;-77
2023/05/19 07:07:42;;;;;;;5.65;2.40;;;;;;;;;;4989983;28;20038;-77
2023/05/19 07:10:08;;;;;;;5.80;2.10;;;;;;;;;;4994283;28;20157;-77
2023/05/19 07:12:33;;;;;;;5.65;2.08;;;;;;;;;;4994107;28;20073;-77
2023/05/19 07:14:59;;;;;;;4.70;2.05;;;;;;;;;;4993295;28;20038;-77
2023/05/19 07:17:24;;;;;;;8.43;2.50;;;;;;;;;;4993646;28;20038;-77
2023/05/19 07:19:50;;;;;;;6.80;2.38;;;;;;;;;;4993904;28;20042;-77
2023/05/19 07:22:16;;;;;;;7.15;2.60;;;;;;;;;;4970646;28;20034;-76
2023/05/19 07:24:41;;;;;;;9.85;2.25;;;;;;;;;;4987962;28;20747;-77
2023/05/19 07:27:08;;;;;;;6.85;2.50;;;;;;;;;;4990942;28;20048;-77
2023/05/19 07:29:33;;;;;;;4.18;2.38;;;;;;;;;;4990778;28;20456;-77
2023/05/19 07:31:59;;;;;;;7.47;2.85;;;;;;;;;;4991062;28;20125;-77
2023/05/19 07:34:24;;;;;;;8.25;2.38;;;;;;;;;;4992031;28;20041;-77
2023/05/19 07:36:50;;;;;;;4.45;2.50;;;;;;;;;;4991928;28;20084;-77
2023/05/19 07:39:16;;;;;;;6.88;2.75;;;;;;;;;;4984878;28;20042;-77
2023/05/19 07:41:41;;;;;;;4.50;2.22;;;;;;;;;;4991456;28;20043;-77
2023/05/19 07:44:06;;;;;;;7.03;2.15;;;;;;;;;;4992207;28;20117;-77
2023/05/19 07:46:37;;;;;;;4.63;2.08;;;;;;;;;;4988301;28;20038;-77
2023/05/19 07:49:03;;;;;;;5.55;2.42;;;;;;;;;;4990096;28;20050;-76
2023/05/19 07:51:30;;;;;;;4.88;2.17;;;;;;;;;;4995783;28;20150;-76
2023/05/19 07:53:56;;;;;;;6.25;2.15;;;;;;;;;;4991342;28;20117;-77
2023/05/19 07:56:21;;;;;;;3.70;1.67;;;;;;;;;;4989351;28;20117;-77
2023/05/19 07:58:47;;;;;;;5.13;2.10;;;;;;;;;;4987394;28;20386;-77
2023/05/19 08:01:13;;;;;;;8.35;2.38;;;;;;;;;;4983727;28;20055;-77
2023/05/19 08:03:39;;;;;;;6.18;2.30;;;;;;;;;;4990257;28;20058;-76
2023/05/19 08:06:04;;;;;;;5.60;2.05;;;;;;;;;;4991499;28;20106;-76
2023/05/19 08:08:32;;;;;;;8.02;2.97;;;;;;;;;;4983642;28;20057;-77
2023/05/19 08:11:00;;;;;;;7.53;2.58;;;;;;;;;;4987630;28;20057;-77
2023/05/19 08:13:26;;;;;;;5.75;2.30;;;;;;;;;;4991264;28;20069;-77
2023/05/19 08:15:53;;;;;;;5.18;2.35;;;;;;;;;;4989713;28;20042;-77
2023/05/19 08:18:19;;;;;;;5.43;2.70;;;;;;;;;;4990614;28;20368;-78
2023/05/19 08:20:45;;;;;;;4.80;2.10;;;;;;;;;;4992076;28;20455;-77
2023/05/19 08:23:11;;;;;;;6.72;2.28;;;;;;;;;;4991530;28;20038;-77
2023/05/19 08:25:36;;;;;;;5.07;2.50;;;;;;;;;;4990479;28;20092;-77
2023/05/19 08:28:01;;;;;;;6.18;2.38;;;;;;;;;;4988906;28;20546;-77
2023/05/19 08:30:27;;;;;;;7.53;2.47;;;;;;;;;;4995826;28;20038;-77
2023/05/19 08:32:52;;;;;;;7.45;2.45;;;;;;;;;;4990990;28;20117;-77
2023/05/19 08:35:18;;;;;;;9.05;3.00;;;;;;;;;;4984137;28;20030;-78
2023/05/19 08:37:43;;;;;;;5.95;2.63;;;;;;;;;;4990277;28;20917;-78
2023/05/19 08:40:17;;;;;;;7.53;3.10;;;;;;;;;;4989684;28;20038;-77
2023/05/19 08:42:44;;;;;;;6.20;2.60;;;;;;;;;;4985800;28;20125;-77
2023/05/19 08:45:10;;;;;;;7.32;2.50;;;;;;;;;;4988808;28;20125;-78
2023/05/19 08:47:35;;;;;;;8.35;2.38;;;;;;;;;;4988487;28;20522;-77
2023/05/19 08:50:09;;;;;;;8.73;2.53;;;;;;;;;;4988350;28;20044;-77
2023/05/19 08:52:51;;;;;;;7.40;2.90;;;;;;;;;;4989137;28;20061;-77
2023/05/19 08:55:28;;;;;;;5.60;2.35;;;;;;;;;;4990408;28;20049;-78
2023/05/19 08:57:53;;;;;;;6.55;2.15;;;;;;;;;;4988606;28;20085;-77
2023/05/19 09:00:19;;;;;;;6.82;3.15;;;;;;;;;;4986412;28;20034;-77
2023/05/19 09:02:47;;;;;;;6.60;2.35;;;;;;;;;;4988953;28;20034;-78
2023/05/19 09:05:15;;;;;;;5.95;2.60;;;;;;;;;;4989069;28;20117;-78
2023/05/19 09:07:42;;;;;;;5.13;2.17;;;;;;;;;;4988759;28;20046;-78
2023/05/19 09:10:08;;;;;;;5.43;2.38;;;;;;;;;;4988794;28;20034;-78
2023/05/19 09:12:33;;;;;;;9.18;2.90;;;;;;;;;;4988116;28;20063;-78
2023/05/19 09:14:59;;;;;;;5.85;2.70;;;;;;;;;;4989760;28;20049;-78
2023/05/19 09:17:25;;;;;;;5.45;2.72;;;;;;;;;;4989601;28;20506;-78
2023/05/19 09:19:50;;;;;;;7.55;2.80;;;;;;;;;;4988229;28;20034;-77
2023/05/19 09:22:19;;;;;;;5.28;2.50;;;;;;;;;;4988426;28;20070;-78
2023/05/19 09:24:46;;;;;;;8.15;2.63;;;;;;;;;;4989690;28;20510;-77
2023/05/19 09:27:14;;;;;;;9.80;2.63;;;;;;;;;;4988559;28;20065;-78
2023/05/19 09:29:39;;;;;;;5.95;2.88;;;;;;;;;;4990206;28;20049;-78
2023/05/19 09:32:05;;;;;;;6.72;2.78;;;;;;;;;;4989745;28;20050;-78
2023/05/19 09:34:31;;;;;;;8.35;3.00;;;;;;;;;;4990581;28;20026;-77
2023/05/19 09:36:58;;;;;;;6.55;2.70;;;;;;;;;;4998333;28;20041;-78
2023/05/19 09:39:24;;;;;;;5.13;2.45;;;;;;;;;;4989093;28;20045;-78
2023/05/19 09:41:54;;;;;;;8.73;3.10;;;;;;;;;;4990181;28;20038;-78
2023/05/19 09:44:19;;;;;;;4.75;2.55;;;;;;;;;;4990256;28;20038;-78
2023/05/19 09:46:52;;;;;;;6.68;3.03;;;;;;;;;;4990127;28;20038;-78
2023/05/19 09:49:18;;;;;;;;;;;;;;;;;;4990574;28;20347;-78
2023/05/19 09:51:44;;;;;;;6.13;3.42;;;;;;;;;;4989035;28;19913;-78
2023/05/19 09:54:14;;;;;;;4.82;2.92;;;;;;;;;;4991093;28;20072;-78
2023/05/19 09:56:39;;;;;;;6.97;3.28;;;;;;;;;;4988574;28;20045;-78
2023/05/19 09:59:06;;;;;;;6.35;2.83;;;;;;;;;;4989587;28;20535;-78
2023/05/19 10:01:32;;;;;;;5.15;2.90;;;;;;;;;;4989733;28;20031;-78
2023/05/19 10:03:58;;;;;;;4.80;2.53;;;;;;;;;;4988619;28;20035;-78
2023/05/19 10:06:25;;;;;;;6.60;2.67;;;;;;;;;;4988692;28;20034;-77
2023/05/19 10:08:51;;;;;;;6.07;2.80;;;;;;;;;;4990659;28;20039;-78
2023/05/19 10:11:16;;;;;;;5.95;2.75;;;;;;;;;;4988391;28;20034;-78
2023/05/19 10:13:44;;;;;;;6.40;2.90;;;;;;;;;;4990514;28;20387;-78
2023/05/19 10:16:10;;;;;;;7.07;3.00;;;;;;;;;;4989927;28;20129;-78
2023/05/19 10:18:36;;;;;;;5.40;2.50;;;;;;;;;;4988671;28;20046;-78
2023/05/19 10:21:02;;;;;;;5.93;2.58;;;;;;;;;;4975851;28;20052;-78
2023/05/19 10:23:27;;;;;;;5.00;2.88;;;;;;;;;;4989147;28;20113;-78
2023/05/19 10:25:55;;;;;;;5.07;2.38;;;;;;;;;;4990440;28;20045;-77
2023/05/19 10:28:24;;;;;;;6.10;2.55;;;;;;;;;;4985315;28;20442;-78
2023/05/19 10:30:52;;;;;;;7.00;2.83;;;;;;;;;;4986835;28;20046;-77
2023/05/19 10:33:18;;;;;;;8.02;3.42;;;;;;;;;;4987671;28;20467;-78
2023/05/19 10:36:09;;;;;;;6.05;2.85;;;;;;;;;;4987424;28;20046;-78
2023/05/19 10:38:47;;;;;;;4.25;2.38;;;;;;;;;;4988772;28;20057;-77
2023/05/19 10:41:18;;;;;;;5.97;2.50;;;;;;;;;;4987686;28;20038;-76
2023/05/19 10:43:59;;;;;;;8.88;2.85;;;;;;;;;;4991429;28;20512;-76
2023/05/19 10:46:28;;;;;;;9.88;2.70;;;;;;;;;;4989582;28;20049;-77
2023/05/19 10:48:54;;;;;;;12.30;2.67;;;;;;;;;;4991284;28;20450;-77
2023/05/19 10:51:20;;;;;;;5.43;2.40;;;;;;;;;;4991299;28;20485;-76
2023/05/19 10:53:45;;;;;;;5.35;2.08;;;;;;;;;;4989361;28;20042;-76
2023/05/19 10:56:11;;;;;;;5.07;2.38;;;;;;;;;;4991091;28;20501;-76
2023/05/19 10:58:38;;;;;;;5.75;2.72;;;;;;;;;;4990974;28;20537;-76
2023/05/19 11:01:08;;;;;;;5.32;2.40;;;;;;;;;;4992436;28;20484;-76
2023/05/19 11:03:55;;;;;;;4.50;2.13;;;;;;;;;;4990891;28;20042;-76
2023/05/19 11:06:39;;;;;;;7.00;2.83;;;;;;;;;;4990913;28;20046;-76
2023/05/19 11:09:07;;;;;;;3.85;2.03;;;;;;;;;;4992731;28;20061;-75
2023/05/19 11:11:49;;;;;;;5.50;2.33;;;;;;;;;;4992321;28;20378;-76
2023/05/19 11:14:17;;;;;;;7.07;2.60;;;;;;;;;;4988688;28;20482;-76
2023/05/19 11:16:46;;;;;;;5.00;2.53;;;;;;;;;;4988852;28;20042;-76
2023/05/19 11:19:18;;;;;;;7.93;2.55;;;;;;;;;;4991420;28;20049;-75
2023/05/19 11:21:56;;;;;;;3.88;1.90;;;;;;;;;;4992729;28;20042;-76
2023/05/19 11:24:43;;;;;;;5.93;2.28;;;;;;;;;;4991110;28;20042;-76
2023/05/19 11:27:29;;;;;;;6.60;2.83;;;;;;;;;;4975756;28;20066;-76
2023/05/19 11:29:58;;;;;;;4.10;2.00;;;;;;;;;;4992527;28;20046;-77
2023/05/19 11:32:32;;;;;;;8.68;2.50;;;;;;;;;;4991149;28;20034;-76
2023/05/19 11:34:58;;;;;;;6.20;2.15;;;;;;;;;;4991382;28;20041;-75
2023/05/19 11:37:23;;;;;;;7.63;2.72;;;;;;;;;;4989284;28;20034;-76
2023/05/19 11:39:49;;;;;;;5.07;2.20;;;;;;;;;;4992079;28;20042;-75
2023/05/19 11:42:15;;;;;;;6.22;2.35;;;;;;;;;;4991488;28;20058;-76
2023/05/19 11:44:41;;;;;;;9.45;2.50;;;;;;;;;;4988346;28;20125;-76
2023/05/19 11:47:07;;;;;;;6.75;2.33;;;;;;;;;;4992053;28;20042;-75
2023/05/19 11:49:32;;;;;;;6.30;2.55;;;;;;;;;;4991241;28;20049;-76
2023/05/19 11:52:01;;;;;;;6.28;2.40;;;;;;;;;;4991416;28;20041;-75
2023/05/19 11:54:38;;;;;;;6.00;2.33;;;;;;;;;;4991867;28;20042;-76
2023/05/19 11:57:03;;;;;;;5.35;2.25;;;;;;;;;;4990514;28;20121;-76
2023/05/19 11:59:30;;;;;;;7.65;1.90;;;;;;;;;;4992292;28;20129;-76
2023/05/19 12:01:56;;;;;;;7.63;2.40;;;;;;;;;;4992357;28;20110;-75
2023/05/19 12:04:21;;;;;;;6.97;2.55;;;;;;;;;;4991841;28;20503;-76
2023/05/19 12:06:51;;;;;;;3.05;1.80;;;;;;;;;;4991673;28;20089;-75
2023/05/19 12:09:17;;;;;;;7.60;2.38;;;;;;;;;;4992136;28;20038;-76
2023/05/19 12:11:43;;;;;;;8.95;2.50;;;;;;;;;;4991037;28;20043;-76
2023/05/19 12:14:08;;;;;;;7.15;2.20;;;;;;;;;;4992186;28;20038;-75
2023/05/19 12:16:34;;;;;;;4.75;2.20;;;;;;;;;;4991690;28;20478;-76
2023/05/19 12:19:00;;;;;;;8.38;2.55;;;;;;;;;;4985640;28;20053;-76
2023/05/19 12:21:25;;;;;;;6.35;2.20;;;;;;;;;;4988315;28;20117;-75
2023/05/19 12:23:51;;;;;;;8.32;2.22;;;;;;;;;;4989992;28;20122;-75
2023/05/19 12:26:18;;;;;;;5.47;2.03;;;;;;;;;;4989707;28;20046;-75
2023/05/19 12:28:44;;;;;;;5.43;2.17;;;;;;;;;;4991464;28;20042;-76
2023/05/19 12:31:10;;;;;;;7.97;2.25;;;;;;;;;;4991279;28;20471;-75
2023/05/19 12:33:36;;;;;;;5.00;2.28;;;;;;;;;;4987449;28;20038;-75
2023/05/19 12:36:01;;;;;;;4.75;2.00;;;;;;;;;;4988746;28;20486;-75
2023/05/19 12:38:26;;;;;;;4.35;1.92;;;;;;;;;;4990274;28;20026;-75
2023/05/19 12:40:52;;;;;;;4.63;2.38;;;;;;;;;;4990639;28;20105;-75
2023/05/19 12:43:19;;;;;;;3.88;1.92;;;;;;;;;;4989587;28;20406;-76
2023/05/19 12:45:45;;;;;;;4.50;2.25;;;;;;;;;;4991515;28;20030;-74
2023/05/19 12:48:11;;;;;;;5.90;1.90;;;;;;;;;;4989902;28;20045;-75
2023/05/19 12:50:36;;;;;;;4.57;1.90;;;;;;;;;;4989798;28;20443;-75
2023/05/19 12:53:02;;;;;;;5.25;2.17;;;;;;;;;;4990139;28;20038;-75
2023/05/19 12:55:28;;;;;;;3.40;1.85;;;;;;;;;;4990789;28;20038;-75
2023/05/19 12:57:56;;;;;;;3.88;1.83;;;;;;;;;;4989256;28;20398;-75
2023/05/19 13:00:26;;;;;;;3.58;2.10;;;;;;;;;;4989666;28;20109;-75
2023/05/19 13:02:58;;;;;;;3.28;1.98;;;;;;;;;;4989742;28;20474;-75
2023/05/19 13:05:24;;;;;;;2.85;1.88;;;;;;;;;;4989603;28;20046;-76
2023/05/19 13:08:05;;;;;;;4.50;2.08;;;;;;;;;;4990961;28;20047;-75
2023/05/19 13:10:31;;;;;;;4.80;1.70;;;;;;;;;;4988138;28;20037;-75
2023/05/19 13:12:59;;;;;;;1.70;0.90;;;;;;;;;;4989076;28;20043;-75
2023/05/19 13:15:25;;;;;;;2.28;1.17;;;;;;;;;;4989395;28;20038;-75
2023/05/19 13:17:52;;;;;;;3.38;1.10;;;;;;;;;;4987193;28;20042;-75
2023/05/19 13:20:18;;;;;;;3.15;1.17;;;;;;;;;;4990865;28;20424;-76
2023/05/19 13:22:44;;;;;;;2.00;1.10;;;;;;;;;;4990790;28;20038;-75
2023/05/19 13:25:09;;;;;;;2.88;1.10;;;;;;;;;;4990026;28;20049;-75
2023/05/19 13:27:35;;;;;;;2.22;1.00;;;;;;;;;;4989304;28;20137;-75
2023/05/19 13:30:01;;;;;;;2.00;1.00;;;;;;;;;;4989958;28;20034;-76
2023/05/19 13:32:27;;;;;;;3.08;0.90;;;;;;;;;;4990871;28;20394;-76
2023/05/19 13:34:52;;;;;;;3.47;1.10;;;;;;;;;;4985915;28;20042;-76
2023/05/19 13:37:17;;;;;;;3.05;1.15;;;;;;;;;;4987423;28;20045;-75
2023/05/19 13:39:43;;;;;;;1.80;1.00;;;;;;;;;;4989888;28;20046;-75
2023/05/19 13:42:08;;;;;;;2.42;0.90;;;;;;;;;;4989972;28;20050;-75
2023/05/19 13:44:34;;;;;;;2.10;1.10;;;;;;;;;;4986737;28;20037;-76
2023/05/19 13:46:59;;;;;;;2.30;1.02;;;;;;;;;;4989510;28;20042;-75
2023/05/19 13:49:25;;;;;;;2.30;1.10;;;;;;;;;;4986083;28;20047;-75
2023/05/19 13:51:50;;;;;;;2.53;0.95;;;;;;;;;;4989933;28;20455;-75
2023/05/19 13:54:16;;;;;;;2.28;1.00;;;;;;;;;;4989752;28;20046;-76
2023/05/19 13:56:43;;;;;;;1.77;0.80;;;;;;;;;;4987782;28;20034;-76
2023/05/19 13:59:08;;;;;;;2.05;0.95;;;;;;;;;;4988178;28;20054;-75
2023/05/19 14:01:34;;;;;;;1.90;0.82;;;;;;;;;;4987683;28;20054;-75
2023/05/19 14:03:59;;;;;;;2.22;1.02;;;;;;;;;;4988221;28;20030;-75
2023/05/19 14:06:25;;;;;;;2.22;0.90;;;;;;;;;;4989376;28;20471;-75
2023/05/19 14:08:50;;;;;;;2.70;0.90;;;;;;;;;;4989453;28;20042;-75
2023/05/19 14:11:20;;;;;;;4.25;1.10;;;;;;;;;;4988812;28;20038;-75
2023/05/19 14:13:47;;;;;;;1.95;1.00;;;;;;;;;;4988656;28;20490;-75
2023/05/19 14:16:13;;;;;;;3.47;1.10;;;;;;;;;;4989202;28;20042;-75
2023/05/19 14:18:38;;;;;;;3.00;1.23;;;;;;;;;;4993452;28;20039;-75
2023/05/19 14:21:04;;;;;;;3.00;1.10;;;;;;;;;;4994008;28;20030;-75
2023/05/19 14:23:30;;;;;;;2.88;1.08;;;;;;;;;;4993153;28;20546;-75
2023/05/19 14:25:56;;;;;;;2.28;1.10;;;;;;;;;;4992571;28;20058;-75
2023/05/19 14:28:21;;;;;;;3.70;1.00;;;;;;;;;;4992732;28;20372;-75
2023/05/19 14:30:46;;;;;;;2.75;1.10;;;;;;;;;;4993312;28;20042;-75
2023/05/19 14:33:12;;;;;;;2.17;1.00;;;;;;;;;;4993754;28;20041;-75
2023/05/19 14:35:37;;;;;;;1.60;0.80;;;;;;;;;;4992699;28;20423;-75
2023/05/19 14:38:03;;;;;;;1.50;0.70;;;;;;;;;;4992798;28;20425;-75
2023/05/19 14:40:28;;;;;;;2.67;0.93;;;;;;;;;;4991695;28;20041;-75
2023/05/19 14:42:54;;;;;;;1.58;0.90;;;;;;;;;;4993147;28;20042;-75